Time;durP1;ratioP1;P1;durP2;ratioP2;P2;SDS_P1;SDS_P2;PMS_P1;PMS_P2;Temp;Humidity;BMP_temperature;BMP_pressure;BME280_temperature;BME280_humidity;BME280_pressure;Samples;Min_cycle;Max_cycle;Signal;HPM_P1;HPM_P2
2022/12/05 00:01:54;;;;;;;47.00;24.40;;;;;;;4.32;100.00;102078.25;4986355;28;20713;-72
2022/12/05 00:04:19;;;;;;;49.27;24.20;;;;;;;4.31;100.00;102080.66;4988166;28;20270;-73
2022/12/05 00:06:45;;;;;;;48.07;24.77;;;;;;;4.31;100.00;102079.03;4982632;28;20192;-72
2022/12/05 00:09:12;;;;;;;43.50;24.00;;;;;;;4.33;100.00;102079.97;4984716;28;20195;-72
2022/12/05 00:11:40;;;;;;;47.40;25.33;;;;;;;4.34;100.00;102075.81;4972775;28;20279;-73
2022/12/05 00:14:07;;;;;;;46.77;25.00;;;;;;;4.32;100.00;102069.78;4989673;28;20625;-72
2022/12/05 00:16:36;;;;;;;48.53;24.63;;;;;;;4.32;100.00;102069.78;4987507;28;20211;-72
2022/12/05 00:19:04;;;;;;;49.30;26.63;;;;;;;4.32;100.00;102065.56;4990411;28;20242;-72
2022/12/05 00:21:33;;;;;;;48.07;25.10;;;;;;;4.31;100.00;102066.34;5006555;28;20607;-73
2022/12/05 00:24:00;;;;;;;48.00;25.37;;;;;;;4.31;100.00;102057.84;4984931;28;20191;-72
2022/12/05 00:26:27;;;;;;;45.23;24.50;;;;;;;4.33;100.00;102063.91;4988602;28;20196;-72
2022/12/05 00:28:53;;;;;;;49.67;25.13;;;;;;;4.36;100.00;102053.94;4984567;28;20250;-72
2022/12/05 00:31:22;;;;;;;45.37;24.30;;;;;;;4.32;100.00;102052.88;4983350;28;20219;-72
2022/12/05 00:33:48;;;;;;;48.33;25.83;;;;;;;4.31;100.00;102046.06;4984252;28;20659;-73
2022/12/05 00:36:17;;;;;;;49.80;23.90;;;;;;;4.33;100.00;102046.19;4983307;28;20745;-73
2022/12/05 00:38:43;;;;;;;47.70;24.80;;;;;;;4.33;100.00;102046.19;4992730;28;20191;-73
2022/12/05 00:41:12;;;;;;;52.07;25.53;;;;;;;4.32;100.00;102050.34;4974807;28;20260;-72
2022/12/05 00:43:37;;;;;;;44.50;22.93;;;;;;;4.31;100.00;102046.06;4984408;28;20194;-73
2022/12/05 00:46:08;;;;;;;44.40;23.87;;;;;;;4.35;100.00;102039.53;4995425;28;20192;-73
2022/12/05 00:48:34;;;;;;;44.90;24.70;;;;;;;4.33;100.00;102041.97;4984342;28;20649;-73
2022/12/05 00:51:04;;;;;;;42.10;23.67;;;;;;;4.34;100.00;102042.84;4986604;28;20219;-73
2022/12/05 00:53:30;;;;;;;40.93;23.57;;;;;;;4.35;100.00;102040.41;4989599;28;20212;-73
2022/12/05 00:55:56;;;;;;;43.80;23.77;;;;;;;4.37;100.00;102043.91;4987612;28;20255;-73
2022/12/05 00:58:21;;;;;;;43.90;24.23;;;;;;;4.38;100.00;102048.19;4989874;28;20315;-73
2022/12/05 01:00:47;;;;;;;44.27;24.70;;;;;;;4.37;100.00;102046.44;4989560;28;20654;-72
2022/12/05 01:03:12;;;;;;;43.63;23.83;;;;;;;4.38;100.00;102044.81;4995877;28;20192;-73
2022/12/05 01:05:37;;;;;;;38.60;22.67;;;;;;;4.39;100.00;102046.56;4990969;28;20596;-73
2022/12/05 01:08:03;;;;;;;41.47;22.53;;;;;;;4.38;100.00;102048.19;4988727;28;20187;-72
2022/12/05 01:10:29;;;;;;;39.23;21.53;;;;;;;4.38;100.00;102044.81;4990439;28;20681;-72
2022/12/05 01:12:54;;;;;;;41.30;23.20;;;;;;;4.38;100.00;102048.19;4990554;28;20212;-72
2022/12/05 01:15:19;;;;;;;35.73;21.03;;;;;;;4.39;100.00;102037.31;4990019;28;20207;-72
2022/12/05 01:17:45;;;;;;;38.77;21.90;;;;;;;4.40;100.00;102033.09;4990207;28;20187;-72
2022/12/05 01:20:10;;;;;;;38.33;22.20;;;;;;;4.40;100.00;102036.50;4988901;28;20245;-73
2022/12/05 01:22:36;;;;;;;42.37;21.43;;;;;;;4.41;100.00;102042.44;4989584;28;20229;-73
2022/12/05 01:25:01;;;;;;;37.73;21.53;;;;;;;4.42;100.00;102037.47;4986435;28;20303;-72
2022/12/05 01:27:27;;;;;;;42.27;22.57;;;;;;;4.40;100.00;102036.50;4986376;28;20191;-73
2022/12/05 01:29:52;;;;;;;37.77;21.33;;;;;;;4.43;100.00;102038.38;4989036;28;20204;-72
2022/12/05 01:32:18;;;;;;;39.67;22.90;;;;;;;4.42;100.00;102044.22;4986289;28;20554;-72
2022/12/05 01:34:43;;;;;;;35.00;20.43;;;;;;;4.43;100.00;102044.31;4987518;28;20567;-72
2022/12/05 01:37:09;;;;;;;36.60;21.37;;;;;;;4.45;100.00;102057.06;4987058;28;20273;-73
2022/12/05 01:39:34;;;;;;;35.07;21.50;;;;;;;4.45;100.00;102052.88;4987834;28;20215;-73
2022/12/05 01:42:00;;;;;;;42.23;22.33;;;;;;;4.44;100.00;102048.59;4986505;28;20196;-73
2022/12/05 01:44:25;;;;;;;39.27;21.67;;;;;;;4.45;100.00;102047.81;4986914;28;20191;-72
2022/12/05 01:46:52;;;;;;;37.60;21.07;;;;;;;4.47;100.00;102041.16;4986631;28;20200;-72
2022/12/05 01:49:29;;;;;;;43.20;23.00;;;;;;;4.48;100.00;102032.81;4987008;28;20196;-73
2022/12/05 01:52:00;;;;;;;38.53;20.97;;;;;;;4.48;100.00;102035.34;4986270;28;20187;-72
2022/12/05 01:54:27;;;;;;;41.37;22.00;;;;;;;4.49;100.00;102039.63;4984230;28;20208;-73
2022/12/05 01:56:58;;;;;;;41.30;22.50;;;;;;;4.49;100.00;102031.13;4983441;28;20779;-72
2022/12/05 01:59:25;;;;;;;37.20;22.10;;;;;;;4.50;100.00;102033.75;4984553;28;20239;-72
2022/12/05 02:01:51;;;;;;;38.07;20.97;;;;;;;4.50;100.00;102031.22;5002153;28;20200;-72
2022/12/05 02:04:17;;;;;;;40.10;21.13;;;;;;;4.51;100.00;102032.13;4994142;28;20211;-72
2022/12/05 02:06:42;;;;;;;37.77;22.00;;;;;;;4.51;100.00;102027.91;4988502;28;20187;-73
2022/12/05 02:09:08;;;;;;;38.47;21.57;;;;;;;4.53;100.00;102020.41;4990511;28;20224;-73
2022/12/05 02:11:40;;;;;;;42.10;20.90;;;;;;;4.54;100.00;102027.22;4990546;28;20223;-73
2022/12/05 02:14:21;;;;;;;39.37;21.80;;;;;;;4.54;100.00;102017.06;4989471;28;20215;-73
2022/12/05 02:17:01;;;;;;;37.03;20.53;;;;;;;4.56;100.00;102020.59;4989590;28;20200;-73
2022/12/05 02:19:58;;;;;;;37.70;21.23;;;;;;;4.55;100.00;102017.19;5017354;23;20243;-79
2022/12/05 02:23:01;;;;;;;37.43;20.70;;;;;;;4.56;100.00;102011.31;5027241;28;20718;-78
2022/12/05 02:25:48;;;;;;;43.20;20.97;;;;;;;4.57;100.00;102012.19;5005299;28;20698;-77
2022/12/05 02:28:31;;;;;;;37.67;20.53;;;;;;;4.58;100.00;102004.69;4996780;28;20212;-78
2022/12/05 02:31:01;;;;;;;36.80;19.97;;;;;;;4.57;100.00;102004.59;5001758;28;20239;-77
2022/12/05 02:33:38;;;;;;;36.57;20.87;;;;;;;4.56;100.00;101998.63;4985405;28;20223;-77
2022/12/05 02:36:10;;;;;;;37.50;21.17;;;;;;;4.58;100.00;102003.81;4986492;28;20581;-77
2022/12/05 02:38:44;;;;;;;36.07;20.90;;;;;;;4.58;100.00;102006.34;4973449;28;20273;-77
2022/12/05 02:41:22;;;;;;;39.07;21.23;;;;;;;4.59;100.00;102003.00;4990980;28;20264;-77
2022/12/05 02:44:00;;;;;;;37.63;21.47;;;;;;;4.58;100.00;101999.63;5002293;28;20732;-77
2022/12/05 02:46:29;;;;;;;39.07;20.73;;;;;;;4.59;100.00;101992.88;5007781;28;20199;-77
2022/12/05 02:49:02;;;;;;;35.87;19.43;;;;;;;4.59;100.00;101991.22;5008547;28;20216;-76
2022/12/05 02:51:33;;;;;;;37.13;21.80;;;;;;;4.59;100.00;101991.22;4992560;28;20191;-76
2022/12/05 02:54:03;;;;;;;31.83;19.00;;;;;;;4.60;100.00;101987.03;4992175;28;20207;-77
2022/12/05 02:56:32;;;;;;;40.80;21.70;;;;;;;4.59;100.00;101987.81;4992706;28;20188;-75
2022/12/05 02:58:59;;;;;;;38.27;21.13;;;;;;;4.59;100.00;101993.75;4994563;28;20310;-77
2022/12/05 03:01:28;;;;;;;36.57;21.53;;;;;;;4.60;100.00;101984.50;4987632;28;20626;-78
2022/12/05 03:03:56;;;;;;;39.60;21.47;;;;;;;4.62;100.00;101982.94;4988573;28;20203;-75
2022/12/05 03:06:35;;;;;;;40.17;21.63;;;;;;;4.62;100.00;101990.53;4987524;28;20185;-78
2022/12/05 03:09:05;;;;;;;35.57;20.33;;;;;;;4.61;100.00;101988.78;4987096;28;20242;-78
2022/12/05 03:11:43;;;;;;;37.60;21.23;;;;;;;4.61;100.00;101982.03;4987102;28;20199;-77
2022/12/05 03:14:21;;;;;;;38.43;22.30;;;;;;;4.62;100.00;101988.00;4992153;28;20210;-77
2022/12/05 03:16:50;;;;;;;41.00;21.73;;;;;;;4.62;100.00;101991.44;4991240;28;20192;-77
2022/12/05 03:19:22;;;;;;;38.43;20.97;;;;;;;4.61;100.00;101988.78;4989322;28;20227;-78
2022/12/05 03:21:53;;;;;;;38.67;20.27;;;;;;;4.62;100.00;101988.00;5006779;28;20226;-78
2022/12/05 03:24:19;;;;;;;43.10;21.97;;;;;;;4.60;100.00;101980.28;4989260;28;20627;-77
2022/12/05 03:27:10;;;;;;;39.43;21.00;;;;;;;4.62;100.00;101993.06;5006254;28;20251;-77
2022/12/05 03:29:38;;;;;;;40.60;22.07;;;;;;;4.64;100.00;101992.38;5005140;28;20203;-77
2022/12/05 03:32:09;;;;;;;45.93;23.13;;;;;;;4.62;100.00;101993.97;4981139;28;20211;-77
2022/12/05 03:35:02;;;;;;;40.20;21.00;;;;;;;4.65;100.00;101998.34;4994084;28;20211;-77
2022/12/05 03:37:45;;;;;;;41.83;22.20;;;;;;;4.63;100.00;101985.56;4992844;28;20295;-77
2022/12/05 03:40:25;;;;;;;41.13;22.03;;;;;;;4.63;100.00;101988.09;4989994;28;20203;-76
2022/12/05 03:43:22;;;;;;;44.37;21.77;;;;;;;4.64;100.00;101996.56;4986634;28;20192;-77
2022/12/05 03:46:01;;;;;;;41.33;22.43;;;;;;;4.64;100.00;101994.03;4975156;28;20243;-76
2022/12/05 03:48:35;;;;;;;40.10;21.97;;;;;;;4.67;100.00;101999.31;4990224;28;20208;-77
2022/12/05 03:51:05;;;;;;;46.40;23.07;;;;;;;4.65;100.00;101986.53;4992556;28;20899;-78
2022/12/05 03:53:45;;;;;;;48.80;23.73;;;;;;;4.66;100.00;101987.41;5011268;28;20238;-80
2022/12/05 03:56:23;;;;;;;42.87;22.50;;;;;;;4.65;100.00;101988.19;4989358;28;20664;-79
2022/12/05 03:59:03;;;;;;;44.87;21.60;;;;;;;4.63;100.00;101985.56;4988064;28;20215;-79
2022/12/05 04:01:32;;;;;;;46.33;23.33;;;;;;;4.62;100.00;101988.88;5004900;28;20191;-78
2022/12/05 04:04:07;;;;;;;45.67;23.27;;;;;;;4.64;100.00;101994.91;4990042;28;20188;-78
2022/12/05 04:06:36;;;;;;;49.60;23.83;;;;;;;4.65;100.00;101978.91;4989217;28;20189;-78
2022/12/05 04:09:08;;;;;;;47.73;22.23;;;;;;;4.64;100.00;101982.25;4993458;28;20203;-77
2022/12/05 04:11:37;;;;;;;46.67;23.13;;;;;;;4.65;100.00;101989.06;4991226;28;20245;-79
2022/12/05 04:14:09;;;;;;;43.33;23.40;;;;;;;4.63;100.00;101984.66;4989220;28;20223;-77
2022/12/05 04:17:03;;;;;;;43.77;22.93;;;;;;;4.64;100.00;101981.34;5007726;28;20192;-77
2022/12/05 04:22:20;;;;;;;46.60;22.80;;;;;;;4.65;100.00;101990.75;4983802;28;20184;-78
2022/12/05 04:27:40;;;;;;;44.43;21.63;;;;;;;4.64;100.00;101992.38;5002943;28;20226;-77
2022/12/05 04:30:10;;;;;;;41.40;21.50;;;;;;;4.61;100.00;101987.09;5001767;28;20186;-76
2022/12/05 04:32:54;;;;;;;43.00;21.13;;;;;;;4.62;100.00;101986.34;5006033;28;20279;-76
2022/12/05 04:35:28;;;;;;;44.37;21.97;;;;;;;4.63;100.00;102000.78;4987028;28;20581;-77
2022/12/05 04:38:01;;;;;;;44.57;21.57;;;;;;;4.64;100.00;101997.44;4988443;28;20724;-75
2022/12/05 04:40:34;;;;;;;41.40;21.17;;;;;;;4.61;100.00;101988.78;4988385;28;20207;-77
2022/12/05 04:43:03;;;;;;;44.60;20.67;;;;;;;4.62;100.00;101985.47;4991933;28;20677;-77
2022/12/05 04:45:30;;;;;;;42.10;21.10;;;;;;;4.62;100.00;101976.22;5005182;28;20188;-78
2022/12/05 04:48:01;;;;;;;42.53;20.47;;;;;;;4.63;100.00;101966.91;4984442;28;20270;-78
2022/12/05 04:50:31;;;;;;;44.00;20.63;;;;;;;4.61;100.00;101968.50;4982211;28;20757;-78
2022/12/05 04:52:59;;;;;;;39.20;20.30;;;;;;;4.61;100.00;101973.56;4983128;28;20608;-78
2022/12/05 04:55:26;;;;;;;40.57;20.17;;;;;;;4.62;100.00;101977.84;4971859;28;20202;-77
2022/12/05 04:58:09;;;;;;;40.37;19.40;;;;;;;4.61;100.00;101976.09;4984778;28;20211;-78
2022/12/05 05:00:49;;;;;;;37.20;19.10;;;;;;;4.59;100.00;101978.53;4982505;28;20656;-78
2022/12/05 05:03:14;;;;;;;35.90;19.30;;;;;;;4.60;100.00;101982.81;4982568;28;20189;-77
2022/12/05 05:05:46;;;;;;;35.10;18.57;;;;;;;4.63;100.00;101985.56;5002091;28;20567;-78
2022/12/05 05:08:21;;;;;;;40.13;19.07;;;;;;;4.60;100.00;101987.91;4997610;28;20890;-78
2022/12/05 05:10:54;;;;;;;43.53;21.00;;;;;;;4.60;100.00;101990.44;4981555;28;20207;-77
2022/12/05 05:13:19;;;;;;;45.53;21.80;;;;;;;4.59;100.00;101992.88;4976209;28;20220;-76
2022/12/05 05:15:45;;;;;;;46.20;22.53;;;;;;;4.59;100.00;101992.88;4981022;28;20202;-78
2022/12/05 05:18:10;;;;;;;50.03;24.13;;;;;;;4.56;100.00;101993.56;4986320;28;20265;-77
2022/12/05 05:20:38;;;;;;;50.03;24.27;;;;;;;4.55;100.00;101993.50;4990224;28;20211;-77
2022/12/05 05:23:03;;;;;;;56.47;25.13;;;;;;;4.53;100.00;101985.78;5004999;28;20188;-78
2022/12/05 05:25:29;;;;;;;67.37;26.67;;;;;;;4.48;100.00;101984.63;4990505;28;20649;-78
2022/12/05 05:27:55;;;;;;;75.80;29.60;;;;;;;4.44;100.00;101990.28;4993988;28;20214;-77
2022/12/05 05:30:22;;;;;;;71.90;27.57;;;;;;;4.45;100.00;101986.97;4989559;28;20192;-77
2022/12/05 05:32:48;;;;;;;70.77;28.27;;;;;;;4.45;100.00;101981.91;4991215;28;20211;-77
2022/12/05 05:35:14;;;;;;;80.23;29.83;;;;;;;4.44;100.00;101982.69;5005254;28;20283;-75
2022/12/05 05:37:40;;;;;;;77.47;29.50;;;;;;;4.45;100.00;101983.53;4992658;28;20596;-77
2022/12/05 05:40:07;;;;;;;87.97;31.93;;;;;;;4.41;100.00;101985.03;5003869;28;20564;-77
2022/12/05 05:42:33;;;;;;;76.93;30.63;;;;;;;4.42;100.00;101979.16;4982643;28;20657;-77
2022/12/05 05:44:58;;;;;;;85.40;30.47;;;;;;;4.41;100.00;101979.94;4986592;28;20202;-77
2022/12/05 05:47:23;;;;;;;81.33;32.10;;;;;;;4.37;100.00;101988.16;4990984;28;20192;-77
2022/12/05 05:49:49;;;;;;;92.90;31.53;;;;;;;4.37;100.00;101988.16;5007915;28;20642;-77
2022/12/05 05:52:14;;;;;;;96.37;32.23;;;;;;;4.37;100.00;101993.22;4987890;28;20274;-76
2022/12/05 05:54:40;;;;;;;92.97;32.23;;;;;;;4.36;100.00;101991.47;4986934;28;20219;-76
2022/12/05 05:57:05;;;;;;;97.80;34.17;;;;;;;4.37;100.00;101994.91;4989007;28;20192;-76
2022/12/05 05:59:31;;;;;;;94.17;32.03;;;;;;;4.37;100.00;101995.75;4983900;28;20231;-77
2022/12/05 06:01:57;;;;;;;95.77;33.57;;;;;;;4.31;100.00;101995.38;4989583;28;20188;-76
2022/12/05 06:04:22;;;;;;;99.40;32.30;;;;;;;4.33;100.00;101985.34;4989845;28;20245;-76
2022/12/05 06:06:47;;;;;;;98.70;34.23;;;;;;;4.29;100.00;101991.88;4994535;28;20249;-77
2022/12/05 06:09:13;;;;;;;93.53;33.23;;;;;;;4.27;100.00;102000.13;5004330;28;20219;-77
2022/12/05 06:11:38;;;;;;;98.40;33.40;;;;;;;4.24;100.00;101992.38;5004467;28;20194;-77
2022/12/05 06:14:04;;;;;;;91.17;32.97;;;;;;;4.24;100.00;101990.69;4989924;28;20290;-78
2022/12/05 06:16:30;;;;;;;87.50;32.53;;;;;;;4.23;100.00;101996.53;4989062;28;20711;-78
2022/12/05 06:18:56;;;;;;;89.50;32.80;;;;;;;4.23;100.00;101996.53;5004335;28;20246;-77
2022/12/05 06:21:22;;;;;;;86.30;31.87;;;;;;;4.21;100.00;101998.13;4973931;28;20249;-78
2022/12/05 06:23:48;;;;;;;86.07;30.57;;;;;;;4.21;100.00;101995.59;4989994;28;20195;-78
2022/12/05 06:26:16;;;;;;;85.37;31.57;;;;;;;4.23;100.00;101999.09;5001260;28;20200;-77
2022/12/05 06:28:43;;;;;;;88.63;31.80;;;;;;;4.22;100.00;101999.88;4989244;28;20208;-77
2022/12/05 06:31:15;;;;;;;88.63;31.83;;;;;;;4.21;100.00;102000.66;4988597;28;20195;-78
2022/12/05 06:33:40;;;;;;;90.67;31.00;;;;;;;4.20;100.00;102009.03;4999569;28;20212;-77
2022/12/05 06:36:10;;;;;;;88.33;32.03;;;;;;;4.22;100.00;102011.66;4985362;28;20196;-77
2022/12/05 06:38:35;;;;;;;86.70;32.37;;;;;;;4.20;100.00;102016.66;4988209;28;20750;-77
2022/12/05 06:41:04;;;;;;;105.63;34.03;;;;;;;4.19;100.00;102016.53;4985165;28;20307;-77
2022/12/05 06:43:30;;;;;;;91.27;34.40;;;;;;;4.18;100.00;102017.34;4987000;28;20188;-77
2022/12/05 06:45:56;;;;;;;95.50;33.33;;;;;;;4.18;100.00;102013.13;5003363;28;20825;-77
2022/12/05 06:48:21;;;;;;;93.93;33.80;;;;;;;4.18;100.00;102017.34;4987529;28;20633;-76
2022/12/05 06:50:49;;;;;;;90.77;33.80;;;;;;;4.16;100.00;102019.75;4978874;28;20187;-77
2022/12/05 06:53:14;;;;;;;100.00;34.37;;;;;;;4.12;100.00;102022.88;4996654;28;20722;-77
2022/12/05 06:55:40;;;;;;;100.27;33.73;;;;;;;4.14;100.00;102022.97;5007041;28;20301;-77
2022/12/05 06:58:05;;;;;;;82.67;32.20;;;;;;;4.16;100.00;102017.22;4988652;28;20509;-76
2022/12/05 07:03:14;;;;;;;90.40;33.13;;;;;;;4.06;100.00;102022.50;5001498;28;20183;-77
2022/12/05 07:05:40;;;;;;;90.27;31.30;;;;;;;4.05;100.00;102027.47;4992771;28;20193;-77
2022/12/05 07:08:05;;;;;;;79.87;31.17;;;;;;;4.06;100.00;102025.03;4989329;28;20291;-77
2022/12/05 07:10:30;;;;;;;81.70;30.33;;;;;;;4.00;100.00;102027.16;4989965;28;20291;-77
2022/12/05 07:12:56;;;;;;;80.53;29.83;;;;;;;3.97;100.00;102032.03;4973710;28;20248;-76
2022/12/05 07:15:21;;;;;;;82.90;31.40;;;;;;;3.94;100.00;102014.09;4980926;28;20273;-77
2022/12/05 07:17:47;;;;;;;93.00;31.23;;;;;;;3.95;100.00;102025.13;4990115;28;20310;-77
2022/12/05 07:20:16;;;;;;;88.90;30.77;;;;;;;3.93;100.00;102014.88;5005155;28;20224;-77
2022/12/05 07:22:42;;;;;;;94.83;30.90;;;;;;;3.92;100.00;102020.72;4992324;28;20267;-78
2022/12/05 07:25:08;;;;;;;90.73;33.53;;;;;;;3.91;100.00;102021.50;4992547;28;20246;-78
2022/12/05 07:27:33;;;;;;;90.17;32.23;;;;;;;3.87;100.00;102014.47;5004961;28;20199;-78
2022/12/05 07:29:59;;;;;;;98.43;32.63;;;;;;;3.85;100.00;102026.16;4989631;28;20192;-77
2022/12/05 07:32:25;;;;;;;103.53;33.53;;;;;;;3.82;100.00;102020.91;4986665;28;20191;-78
2022/12/05 07:34:50;;;;;;;108.27;34.90;;;;;;;3.79;100.00;102022.38;4986279;28;20759;-77
2022/12/05 07:37:16;;;;;;;112.63;36.20;;;;;;;3.76;100.00;102023.03;4988947;28;20231;-77
2022/12/05 07:39:41;;;;;;;103.63;35.20;;;;;;;3.74;100.00;102018.66;4989731;28;20208;-77
2022/12/05 07:42:06;;;;;;;91.90;34.23;;;;;;;3.74;100.00;102023.72;4987732;28;20200;-77
2022/12/05 07:44:32;;;;;;;102.37;33.93;;;;;;;3.71;100.00;102026.03;4985420;28;20242;-77
2022/12/05 07:46:58;;;;;;;90.87;33.50;;;;;;;3.69;100.00;102020.88;4971241;28;20235;-77
2022/12/05 07:49:23;;;;;;;83.30;32.20;;;;;;;3.67;100.00;102024.09;5002072;28;20250;-77
2022/12/05 07:51:49;;;;;;;91.13;31.53;;;;;;;3.64;100.00;102022.22;4985930;28;20195;-77
2022/12/05 07:54:14;;;;;;;80.10;31.87;;;;;;;3.61;100.00;102016.09;4985466;28;20211;-76
2022/12/05 07:56:40;;;;;;;85.53;30.90;;;;;;;3.62;100.00;102022.91;5003455;28;20981;-76
2022/12/05 07:59:05;;;;;;;77.83;29.17;;;;;;;3.60;100.00;102019.41;4999964;28;20219;-77
2022/12/05 08:01:31;;;;;;;79.47;29.43;;;;;;;3.60;100.00;102022.84;4983505;28;20282;-76
2022/12/05 08:03:58;;;;;;;76.53;28.43;;;;;;;3.58;100.00;102023.50;4987825;28;20223;-77
2022/12/05 08:06:29;;;;;;;78.73;31.90;;;;;;;3.61;100.00;102021.16;4980165;28;20428;-76
2022/12/05 08:08:55;;;;;;;79.40;31.23;;;;;;;3.58;100.00;102028.56;4993030;28;20224;-76
2022/12/05 08:11:29;;;;;;;72.33;29.00;;;;;;;3.60;100.00;102030.44;4972455;28;20203;-76
2022/12/05 08:13:56;;;;;;;69.87;30.93;;;;;;;3.59;100.00;102026.13;4988140;28;20893;-77
2022/12/05 08:16:25;;;;;;;72.13;28.63;;;;;;;3.58;100.00;102034.50;4987765;28;20555;-73
2022/12/05 08:18:59;;;;;;;74.10;28.43;;;;;;;3.56;100.00;102032.66;4971071;28;20212;-76
2022/12/05 08:21:25;;;;;;;62.17;28.47;;;;;;;3.55;100.00;102038.50;4982300;28;20204;-76
2022/12/05 08:23:51;;;;;;;65.30;26.80;;;;;;;3.54;100.00;102040.13;4987013;28;20187;-76
2022/12/05 08:26:28;;;;;;;66.07;25.87;;;;;;;3.53;100.00;102042.56;4983819;28;20207;-74
2022/12/05 08:28:59;;;;;;;62.70;26.20;;;;;;;3.54;100.00;102049.41;4987332;28;20216;-75
2022/12/05 08:31:27;;;;;;;57.97;25.67;;;;;;;3.53;100.00;102045.09;4984667;28;20728;-76
2022/12/05 08:33:56;;;;;;;58.70;24.33;;;;;;;3.53;100.00;102040.91;5002347;28;20226;-78
2022/12/05 08:36:21;;;;;;;62.73;26.07;;;;;;;3.54;100.00;102044.34;4966607;28;20286;-77
2022/12/05 08:38:46;;;;;;;60.03;24.97;;;;;;;3.56;100.00;102050.38;4975415;28;20264;-77
2022/12/05 08:41:14;;;;;;;60.50;25.40;;;;;;;3.57;100.00;102049.59;4969933;28;20203;-76
2022/12/05 08:43:40;;;;;;;56.07;23.97;;;;;;;3.54;100.00;102049.41;4976272;28;20294;-77
2022/12/05 08:46:07;;;;;;;51.83;23.30;;;;;;;3.72;100.00;102051.47;4996858;28;20254;-77
2022/12/05 08:48:33;;;;;;;45.70;22.10;;;;;;;3.83;100.00;102053.06;4999401;28;20220;-77
2022/12/05 08:51:04;;;;;;;52.83;22.87;;;;;;;3.82;100.00;102051.28;4956400;28;20184;-78
2022/12/05 08:53:29;;;;;;;53.80;23.27;;;;;;;3.81;100.00;102058.78;4975217;28;20232;-77
2022/12/05 08:55:58;;;;;;;49.33;22.63;;;;;;;3.79;100.00;102056.19;4987660;28;20854;-77
2022/12/05 08:58:24;;;;;;;47.87;21.33;;;;;;;3.74;100.00;102057.53;4989420;28;20258;-76
2022/12/05 09:00:49;;;;;;;45.07;20.93;;;;;;;3.72;100.00;102068.34;4984289;28;20678;-78
2022/12/05 09:03:15;;;;;;;38.80;19.87;;;;;;;3.68;100.00;102066.38;4984558;28;20184;-77
2022/12/05 09:05:40;;;;;;;48.17;20.57;;;;;;;3.66;100.00;102067.91;5005686;28;20279;-78
2022/12/05 09:08:06;;;;;;;37.37;20.13;;;;;;;3.68;100.00;102066.38;4989343;28;20303;-77
2022/12/05 09:10:31;;;;;;;42.93;20.43;;;;;;;3.66;100.00;102066.28;4990849;28;20202;-76
2022/12/05 09:12:57;;;;;;;46.87;21.30;;;;;;;3.67;100.00;102070.56;5002122;28;20187;-77
2022/12/05 09:15:24;;;;;;;38.40;19.33;;;;;;;3.72;100.00;102066.66;4981828;28;20221;-78
2022/12/05 09:17:52;;;;;;;41.40;20.50;;;;;;;3.72;100.00;102073.41;4980732;28;20211;-78
2022/12/05 09:20:18;;;;;;;40.47;19.67;;;;;;;3.72;100.00;102055.69;4976894;28;20204;-77
2022/12/05 09:22:43;;;;;;;42.53;20.13;;;;;;;3.75;100.00;102059.28;4990735;28;20190;-77
2022/12/05 09:25:09;;;;;;;43.63;20.27;;;;;;;3.72;100.00;102063.28;5003805;28;20188;-78
2022/12/05 09:27:35;;;;;;;46.47;19.73;;;;;;;3.76;100.00;102060.13;5001448;28;20584;-77
2022/12/05 09:30:00;;;;;;;38.07;19.27;;;;;;;3.77;100.00;102052.66;4983473;28;20682;-77
2022/12/05 09:32:26;;;;;;;42.57;18.90;;;;;;;3.75;100.00;102051.69;4999261;28;20192;-77
2022/12/05 09:34:53;;;;;;;37.33;17.83;;;;;;;3.76;100.00;102053.44;4980495;28;20236;-76
2022/12/05 09:37:19;;;;;;;35.90;16.93;;;;;;;3.79;100.00;102053.66;4984481;28;20192;-77
2022/12/05 09:39:44;;;;;;;39.37;19.03;;;;;;;3.76;100.00;102052.53;4968293;28;20247;-77
2022/12/05 09:42:36;;;;;;;35.23;18.00;;;;;;;3.80;100.00;102046.91;4999072;28;20203;-76
2022/12/05 09:45:35;;;;;;;34.87;18.10;;;;;;;3.80;100.00;102049.44;4981326;28;20199;-77
2022/12/05 09:48:14;;;;;;;39.87;18.90;;;;;;;3.79;99.99;102053.66;4993286;28;20302;-77
2022/12/05 09:50:57;;;;;;;37.10;18.80;;;;;;;3.81;100.00;102048.66;4993627;28;20195;-77
2022/12/05 09:53:33;;;;;;;39.73;18.53;;;;;;;3.85;100.00;102048.97;4975582;28;20228;-76
2022/12/05 09:56:16;;;;;;;39.70;19.03;;;;;;;3.88;100.00;102038.16;4988744;28;20197;-75
2022/12/05 09:58:52;;;;;;;37.40;18.57;;;;;;;3.90;100.00;102034.06;4979667;28;20220;-77
2022/12/05 10:01:41;;;;;;;31.67;16.67;;;;;;;3.92;100.00;102038.44;4999091;28;20195;-76
2022/12/05 10:04:18;;;;;;;35.80;17.67;;;;;;;3.94;100.00;102036.00;4980255;28;20200;-77
2022/12/05 10:06:57;;;;;;;35.20;18.77;;;;;;;3.97;100.00;102034.56;4980860;28;20681;-77
2022/12/05 10:09:35;;;;;;;40.87;20.37;;;;;;;4.01;100.00;102033.97;4977073;28;20303;-77
2022/12/05 10:12:40;;;;;;;36.77;17.33;;;;;;;4.02;100.00;102032.31;4990644;28;20219;-76
2022/12/05 10:15:35;;;;;;;37.43;18.43;;;;;;;4.05;100.00;102028.31;4970942;28;20243;-76
2022/12/05 10:18:25;;;;;;;41.03;22.67;;;;;;;4.10;99.93;102038.78;4992522;28;20220;-76
2022/12/05 10:20:55;;;;;;;40.80;18.63;;;;;;;4.07;100.00;102025.88;4986417;28;20196;-77
2022/12/05 10:23:29;;;;;;;33.80;18.07;;;;;;;4.09;100.00;102022.69;4986498;28;20768;-76
2022/12/05 10:25:58;;;;;;;35.47;18.50;;;;;;;4.07;100.00;102024.25;4987867;28;20662;-78
2022/12/05 10:28:39;;;;;;;33.33;17.27;;;;;;;4.05;99.79;102015.66;4991568;28;20223;-75
2022/12/05 10:31:13;;;;;;;37.33;19.33;;;;;;;4.05;100.00;102018.19;4992852;28;20250;-78
2022/12/05 10:33:44;;;;;;;43.93;20.83;;;;;;;4.04;99.96;102024.03;4992707;28;20216;-76
2022/12/05 10:36:14;;;;;;;43.00;20.87;;;;;;;4.04;100.00;102010.47;4993196;28;20287;-78
2022/12/05 10:38:41;;;;;;;45.80;21.57;;;;;;;4.04;99.92;102015.56;4988641;28;20286;-77
2022/12/05 10:41:10;;;;;;;45.80;20.33;;;;;;;4.05;100.00;102023.25;4991479;28;20187;-77
2022/12/05 10:43:38;;;;;;;35.83;17.17;;;;;;;4.01;100.00;102021.31;5003039;28;20552;-76
2022/12/05 10:46:04;;;;;;;35.07;17.33;;;;;;;3.98;100.00;102025.31;5002612;28;20595;-76
2022/12/05 10:48:36;;;;;;;38.73;18.80;;;;;;;4.00;100.00;102019.56;5001786;28;20220;-77
2022/12/05 10:51:02;;;;;;;39.23;18.67;;;;;;;4.00;100.00;102013.63;4989801;28;20223;-77
2022/12/05 10:53:27;;;;;;;47.17;21.23;;;;;;;3.95;100.00;102017.53;4991016;28;20211;-77
2022/12/05 10:55:53;;;;;;;40.23;19.93;;;;;;;3.96;100.00;102014.22;4992340;28;20632;-77
2022/12/05 10:58:27;;;;;;;35.80;19.57;;;;;;;3.93;100.00;102019.06;5005358;28;20226;-76
2022/12/05 11:01:06;;;;;;;32.67;17.23;;;;;;;3.94;100.00;102023.34;4987292;28;20184;-76
2022/12/05 11:03:35;;;;;;;47.67;21.20;;;;;;;3.90;100.00;102016.31;4991852;28;20190;-78
2022/12/05 11:06:13;;;;;;;38.57;18.40;;;;;;;3.93;100.00;102017.41;4990614;28;20207;-77
2022/12/05 11:08:39;;;;;;;35.60;17.93;;;;;;;3.94;100.00;102005.63;5004706;28;20208;-78
2022/12/05 11:11:07;;;;;;;35.17;17.07;;;;;;;3.95;100.00;102010.78;4996745;28;20202;-77
2022/12/05 11:13:34;;;;;;;41.20;21.53;;;;;;;3.92;100.00;102009.72;4995560;28;20230;-77
2022/12/05 11:16:00;;;;;;;34.30;18.07;;;;;;;3.92;99.68;102013.09;4982018;28;20249;-77
2022/12/05 11:18:33;;;;;;;37.00;18.50;;;;;;;3.91;100.00;102013.03;5005501;28;20211;-77
2022/12/05 11:21:11;;;;;;;35.07;19.10;;;;;;;3.93;100.00;102001.34;4991642;28;20191;-76
2022/12/05 11:23:36;;;;;;;41.93;21.30;;;;;;;3.93;100.00;101999.69;4991435;28;20189;-77
2022/12/05 11:26:02;;;;;;;42.30;19.53;;;;;;;3.93;100.00;102001.34;4989660;28;20196;-77
2022/12/05 11:28:32;;;;;;;39.43;21.07;;;;;;;3.96;100.00;101996.47;4988562;28;20248;-77
2022/12/05 11:31:25;;;;;;;42.47;21.07;;;;;;;3.95;100.00;101993.06;5004021;28;20184;-76